sensor_id;sensor_type;location;lat;lon;timestamp;temperature;humidity
70456;DHT22;57916;51.996;5.180;2022-09-01T00:01:47;21.10;50.90
70456;DHT22;57916;51.996;5.180;2022-09-01T00:04:17;21.10;51.00
70456;DHT22;57916;51.996;5.180;2022-09-01T00:06:45;21.00;51.10
70456;DHT22;57916;51.996;5.180;2022-09-01T00:09:17;21.00;51.20
70456;DHT22;57916;51.996;5.180;2022-09-01T00:11:48;21.00;51.30
70456;DHT22;57916;51.996;5.180;2022-09-01T00:14:18;21.00;51.30
70456;DHT22;57916;51.996;5.180;2022-09-01T00:17:02;21.00;51.30
70456;DHT22;57916;51.996;5.180;2022-09-01T00:19:29;21.00;51.30
70456;DHT22;57916;51.996;5.180;2022-09-01T00:21:58;20.90;51.30
70456;DHT22;57916;51.996;5.180;2022-09-01T00:24:26;20.90;51.40
70456;DHT22;57916;51.996;5.180;2022-09-01T00:26:54;20.90;51.40
70456;DHT22;57916;51.996;5.180;2022-09-01T00:29:23;20.80;51.60
70456;DHT22;57916;51.996;5.180;2022-09-01T00:31:50;20.80;51.80
70456;DHT22;57916;51.996;5.180;2022-09-01T00:34:17;20.80;51.90
70456;DHT22;57916;51.996;5.180;2022-09-01T00:36:44;20.80;51.90
70456;DHT22;57916;51.996;5.180;2022-09-01T00:39:12;20.80;51.90
70456;DHT22;57916;51.996;5.180;2022-09-01T00:41:40;20.80;52.00
70456;DHT22;57916;51.996;5.180;2022-09-01T00:44:12;20.80;52.00
70456;DHT22;57916;51.996;5.180;2022-09-01T00:46:43;20.70;52.00
70456;DHT22;57916;51.996;5.180;2022-09-01T00:49:29;20.70;52.10
70456;DHT22;57916;51.996;5.180;2022-09-01T00:52:10;20.70;52.20
70456;DHT22;57916;51.996;5.180;2022-09-01T00:54:44;20.60;52.60
70456;DHT22;57916;51.996;5.180;2022-09-01T00:57:12;20.60;52.50
70456;DHT22;57916;51.996;5.180;2022-09-01T00:59:45;20.60;52.90
70456;DHT22;57916;51.996;5.180;2022-09-01T01:02:12;20.60;53.00
70456;DHT22;57916;51.996;5.180;2022-09-01T01:04:39;20.50;52.90
70456;DHT22;57916;51.996;5.180;2022-09-01T01:07:10;20.50;52.80
70456;DHT22;57916;51.996;5.180;2022-09-01T01:09:41;20.50;53.00
70456;DHT22;57916;51.996;5.180;2022-09-01T01:12:09;20.50;53.00
70456;DHT22;57916;51.996;5.180;2022-09-01T01:14:45;20.50;53.00
70456;DHT22;57916;51.996;5.180;2022-09-01T01:17:21;20.40;53.00
70456;DHT22;57916;51.996;5.180;2022-09-01T01:19:51;20.50;53.10
70456;DHT22;57916;51.996;5.180;2022-09-01T01:22:49;20.50;53.10
70456;DHT22;57916;51.996;5.180;2022-09-01T01:25:42;20.40;53.10
70456;DHT22;57916;51.996;5.180;2022-09-01T01:28:21;20.40;53.20
70456;DHT22;57916;51.996;5.180;2022-09-01T01:30:56;20.40;53.40
70456;DHT22;57916;51.996;5.180;2022-09-01T01:33:49;20.30;53.40
70456;DHT22;57916;51.996;5.180;2022-09-01T01:36:22;20.30;53.50
70456;DHT22;57916;51.996;5.180;2022-09-01T01:39:10;20.30;53.60
70456;DHT22;57916;51.996;5.180;2022-09-01T01:41:39;20.30;53.60
70456;DHT22;57916;51.996;5.180;2022-09-01T01:44:09;20.30;53.70
70456;DHT22;57916;51.996;5.180;2022-09-01T01:46:42;20.20;53.80
70456;DHT22;57916;51.996;5.180;2022-09-01T01:49:10;20.10;54.10
70456;DHT22;57916;51.996;5.180;2022-09-01T01:51:40;20.10;54.10
70456;DHT22;57916;51.996;5.180;2022-09-01T01:54:07;20.10;54.10
70456;DHT22;57916;51.996;5.180;2022-09-01T01:56:34;20.10;54.20
70456;DHT22;57916;51.996;5.180;2022-09-01T01:59:04;20.00;54.30
70456;DHT22;57916;51.996;5.180;2022-09-01T02:01:34;20.00;55.30
70456;DHT22;57916;51.996;5.180;2022-09-01T02:04:02;20.00;54.30
70456;DHT22;57916;51.996;5.180;2022-09-01T02:06:33;20.10;54.30
70456;DHT22;57916;51.996;5.180;2022-09-01T02:09:01;20.10;54.30
70456;DHT22;57916;51.996;5.180;2022-09-01T02:11:30;20.00;54.40
70456;DHT22;57916;51.996;5.180;2022-09-01T02:14:06;20.00;54.30
70456;DHT22;57916;51.996;5.180;2022-09-01T02:16:34;19.90;54.30
70456;DHT22;57916;51.996;5.180;2022-09-01T02:19:05;19.80;54.60
70456;DHT22;57916;51.996;5.180;2022-09-01T02:21:33;19.80;54.70
70456;DHT22;57916;51.996;5.180;2022-09-01T02:24:05;19.80;55.00
70456;DHT22;57916;51.996;5.180;2022-09-01T02:26:37;19.70;54.90
70456;DHT22;57916;51.996;5.180;2022-09-01T02:29:10;19.70;55.10
70456;DHT22;57916;51.996;5.180;2022-09-01T02:31:46;19.70;56.20
70456;DHT22;57916;51.996;5.180;2022-09-01T02:34:15;19.80;55.10
70456;DHT22;57916;51.996;5.180;2022-09-01T02:36:47;19.80;55.00
70456;DHT22;57916;51.996;5.180;2022-09-01T02:39:23;19.80;54.80
70456;DHT22;57916;51.996;5.180;2022-09-01T02:41:50;19.70;54.90
70456;DHT22;57916;51.996;5.180;2022-09-01T02:44:22;19.70;55.20
70456;DHT22;57916;51.996;5.180;2022-09-01T02:46:49;19.70;55.00
70456;DHT22;57916;51.996;5.180;2022-09-01T02:49:21;19.70;55.10
70456;DHT22;57916;51.996;5.180;2022-09-01T02:51:53;19.70;55.40
70456;DHT22;57916;51.996;5.180;2022-09-01T02:54:21;19.60;55.10
70456;DHT22;57916;51.996;5.180;2022-09-01T02:56:48;19.60;55.10
70456;DHT22;57916;51.996;5.180;2022-09-01T02:59:17;19.60;55.00
70456;DHT22;57916;51.996;5.180;2022-09-01T03:01:49;19.60;54.90
70456;DHT22;57916;51.996;5.180;2022-09-01T03:04:18;19.60;55.10
70456;DHT22;57916;51.996;5.180;2022-09-01T03:06:46;19.60;55.20
70456;DHT22;57916;51.996;5.180;2022-09-01T03:09:16;19.60;55.00
70456;DHT22;57916;51.996;5.180;2022-09-01T03:11:47;19.50;55.10
70456;DHT22;57916;51.996;5.180;2022-09-01T03:14:15;19.50;55.10
70456;DHT22;57916;51.996;5.180;2022-09-01T03:16:42;19.50;55.10
70456;DHT22;57916;51.996;5.180;2022-09-01T03:19:09;19.40;55.00
70456;DHT22;57916;51.996;5.180;2022-09-01T03:21:41;19.40;55.20
70456;DHT22;57916;51.996;5.180;2022-09-01T03:24:12;19.30;55.30
70456;DHT22;57916;51.996;5.180;2022-09-01T03:26:41;19.30;55.40
70456;DHT22;57916;51.996;5.180;2022-09-01T03:29:09;19.30;55.40
70456;DHT22;57916;51.996;5.180;2022-09-01T03:31:36;19.20;55.50
70456;DHT22;57916;51.996;5.180;2022-09-01T03:34:04;19.20;55.60
70456;DHT22;57916;51.996;5.180;2022-09-01T03:36:35;19.20;55.70
70456;DHT22;57916;51.996;5.180;2022-09-01T03:39:03;19.10;55.80
70456;DHT22;57916;51.996;5.180;2022-09-01T03:41:31;19.00;55.90
70456;DHT22;57916;51.996;5.180;2022-09-01T03:43:58;19.00;56.10
70456;DHT22;57916;51.996;5.180;2022-09-01T03:46:29;19.00;56.10
70456;DHT22;57916;51.996;5.180;2022-09-01T03:49:02;19.00;56.10
70456;DHT22;57916;51.996;5.180;2022-09-01T03:51:33;18.90;56.20
70456;DHT22;57916;51.996;5.180;2022-09-01T03:54:00;18.80;57.20
70456;DHT22;57916;51.996;5.180;2022-09-01T03:56:28;18.80;56.50
70456;DHT22;57916;51.996;5.180;2022-09-01T03:58:57;18.80;57.60
70456;DHT22;57916;51.996;5.180;2022-09-01T04:01:27;18.70;56.70
70456;DHT22;57916;51.996;5.180;2022-09-01T04:03:55;18.70;56.40
70456;DHT22;57916;51.996;5.180;2022-09-01T04:06:28;18.80;56.50
70456;DHT22;57916;51.996;5.180;2022-09-01T04:08:56;18.80;56.40
70456;DHT22;57916;51.996;5.180;2022-09-01T04:11:31;18.70;56.40
70456;DHT22;57916;51.996;5.180;2022-09-01T04:13:59;18.70;56.50
70456;DHT22;57916;51.996;5.180;2022-09-01T04:16:30;18.70;56.40
70456;DHT22;57916;51.996;5.180;2022-09-01T04:19:17;18.70;56.40
70456;DHT22;57916;51.996;5.180;2022-09-01T04:21:55;18.80;56.40
70456;DHT22;57916;51.996;5.180;2022-09-01T04:24:24;18.80;56.20
70456;DHT22;57916;51.996;5.180;2022-09-01T04:26:56;18.80;55.70
70456;DHT22;57916;51.996;5.180;2022-09-01T04:29:25;18.70;55.80
70456;DHT22;57916;51.996;5.180;2022-09-01T04:31:58;18.70;55.90
70456;DHT22;57916;51.996;5.180;2022-09-01T04:34:34;18.70;56.00
70456;DHT22;57916;51.996;5.180;2022-09-01T04:37:13;18.70;55.80
70456;DHT22;57916;51.996;5.180;2022-09-01T04:39:42;18.60;55.60
70456;DHT22;57916;51.996;5.180;2022-09-01T04:42:24;18.60;55.60
70456;DHT22;57916;51.996;5.180;2022-09-01T04:44:53;18.60;55.90
70456;DHT22;57916;51.996;5.180;2022-09-01T04:47:24;18.70;55.60
70456;DHT22;57916;51.996;5.180;2022-09-01T04:50:05;18.60;55.70
70456;DHT22;57916;51.996;5.180;2022-09-01T04:52:44;18.60;55.70
70456;DHT22;57916;51.996;5.180;2022-09-01T04:55:29;18.60;55.60
70456;DHT22;57916;51.996;5.180;2022-09-01T04:57:58;18.60;55.80
70456;DHT22;57916;51.996;5.180;2022-09-01T05:00:26;18.60;56.00
70456;DHT22;57916;51.996;5.180;2022-09-01T05:02:59;18.70;55.60
70456;DHT22;57916;51.996;5.180;2022-09-01T05:06:15;18.70;55.40
70456;DHT22;57916;51.996;5.180;2022-09-01T05:08:48;18.70;55.40
70456;DHT22;57916;51.996;5.180;2022-09-01T05:11:32;18.70;55.60
70456;DHT22;57916;51.996;5.180;2022-09-01T05:14:06;18.70;55.60
70456;DHT22;57916;51.996;5.180;2022-09-01T05:16:34;18.80;55.90
70456;DHT22;57916;51.996;5.180;2022-09-01T05:19:06;18.80;55.50
70456;DHT22;57916;51.996;5.180;2022-09-01T05:21:42;18.80;55.30
70456;DHT22;57916;51.996;5.180;2022-09-01T05:24:15;18.90;55.00
70456;DHT22;57916;51.996;5.180;2022-09-01T05:26:44;19.00;55.00
70456;DHT22;57916;51.996;5.180;2022-09-01T05:29:14;19.00;54.50
70456;DHT22;57916;51.996;5.180;2022-09-01T05:31:46;19.00;54.60
70456;DHT22;57916;51.996;5.180;2022-09-01T05:34:17;19.00;54.50
70456;DHT22;57916;51.996;5.180;2022-09-01T05:36:55;19.10;54.30
70456;DHT22;57916;51.996;5.180;2022-09-01T05:39:25;19.00;54.00
70456;DHT22;57916;51.996;5.180;2022-09-01T05:41:53;19.00;54.00
70456;DHT22;57916;51.996;5.180;2022-09-01T05:44:21;19.00;54.70
70456;DHT22;57916;51.996;5.180;2022-09-01T05:46:50;19.10;54.50
70456;DHT22;57916;51.996;5.180;2022-09-01T05:49:18;19.40;54.00
70456;DHT22;57916;51.996;5.180;2022-09-01T05:51:49;19.80;52.90
70456;DHT22;57916;51.996;5.180;2022-09-01T05:54:22;20.20;51.80
70456;DHT22;57916;51.996;5.180;2022-09-01T05:56:56;20.70;50.30
70456;DHT22;57916;51.996;5.180;2022-09-01T05:59:44;21.10;49.50
70456;DHT22;57916;51.996;5.180;2022-09-01T06:02:16;21.50;48.20
70456;DHT22;57916;51.996;5.180;2022-09-01T06:04:43;21.90;47.20
70456;DHT22;57916;51.996;5.180;2022-09-01T06:07:20;22.20;45.70
70456;DHT22;57916;51.996;5.180;2022-09-01T06:09:52;22.50;45.40
70456;DHT22;57916;51.996;5.180;2022-09-01T06:12:21;22.70;44.40
70456;DHT22;57916;51.996;5.180;2022-09-01T06:14:55;23.00;43.90
70456;DHT22;57916;51.996;5.180;2022-09-01T06:17:25;23.20;42.70
70456;DHT22;57916;51.996;5.180;2022-09-01T06:19:56;23.50;42.10
70456;DHT22;57916;51.996;5.180;2022-09-01T06:22:26;23.50;41.50
70456;DHT22;57916;51.996;5.180;2022-09-01T06:24:54;23.60;41.60
70456;DHT22;57916;51.996;5.180;2022-09-01T06:27:31;23.60;41.50
70456;DHT22;57916;51.996;5.180;2022-09-01T06:29:59;23.70;40.70
70456;DHT22;57916;51.996;5.180;2022-09-01T06:32:26;23.70;40.70
70456;DHT22;57916;51.996;5.180;2022-09-01T06:34:54;23.90;40.60
70456;DHT22;57916;51.996;5.180;2022-09-01T06:37:24;24.20;40.10
70456;DHT22;57916;51.996;5.180;2022-09-01T06:39:54;24.30;39.30
70456;DHT22;57916;51.996;5.180;2022-09-01T06:42:23;24.50;40.40
70456;DHT22;57916;51.996;5.180;2022-09-01T06:44:56;24.80;38.40
70456;DHT22;57916;51.996;5.180;2022-09-01T06:47:25;24.90;38.20
70456;DHT22;57916;51.996;5.180;2022-09-01T06:49:54;25.10;37.40
70456;DHT22;57916;51.996;5.180;2022-09-01T06:52:25;25.10;37.20
70456;DHT22;57916;51.996;5.180;2022-09-01T06:54:53;25.20;36.90
70456;DHT22;57916;51.996;5.180;2022-09-01T06:57:23;25.30;36.80
70456;DHT22;57916;51.996;5.180;2022-09-01T07:00:14;25.40;36.90
70456;DHT22;57916;51.996;5.180;2022-09-01T07:02:52;25.50;37.00
70456;DHT22;57916;51.996;5.180;2022-09-01T07:05:40;25.60;36.30
70456;DHT22;57916;51.996;5.180;2022-09-01T07:08:47;25.50;35.90
70456;DHT22;57916;51.996;5.180;2022-09-01T07:11:44;25.30;37.00
70456;DHT22;57916;51.996;5.180;2022-09-01T07:14:31;25.40;37.00
70456;DHT22;57916;51.996;5.180;2022-09-01T07:16:58;25.40;36.50
70456;DHT22;57916;51.996;5.180;2022-09-01T07:19:46;25.40;37.40
70456;DHT22;57916;51.996;5.180;2022-09-01T07:22:33;25.60;37.00
70456;DHT22;57916;51.996;5.180;2022-09-01T07:25:21;25.60;36.30
70456;DHT22;57916;51.996;5.180;2022-09-01T07:27:56;25.70;36.60
70456;DHT22;57916;51.996;5.180;2022-09-01T07:30:26;25.70;36.30
70456;DHT22;57916;51.996;5.180;2022-09-01T07:32:54;25.90;36.10
70456;DHT22;57916;51.996;5.180;2022-09-01T07:35:23;25.90;35.90
70456;DHT22;57916;51.996;5.180;2022-09-01T07:37:51;25.90;35.50
70456;DHT22;57916;51.996;5.180;2022-09-01T07:40:40;25.80;35.80
70456;DHT22;57916;51.996;5.180;2022-09-01T07:43:46;25.90;36.90
70456;DHT22;57916;51.996;5.180;2022-09-01T07:46:37;26.00;35.70
70456;DHT22;57916;51.996;5.180;2022-09-01T07:49:08;26.10;35.30
70456;DHT22;57916;51.996;5.180;2022-09-01T07:51:56;26.10;35.80
70456;DHT22;57916;51.996;5.180;2022-09-01T07:54:25;26.20;35.00
70456;DHT22;57916;51.996;5.180;2022-09-01T07:56:53;26.30;34.80
70456;DHT22;57916;51.996;5.180;2022-09-01T07:59:22;26.50;34.80
70456;DHT22;57916;51.996;5.180;2022-09-01T08:01:55;26.60;34.60
70456;DHT22;57916;51.996;5.180;2022-09-01T08:04:23;26.70;33.80
70456;DHT22;57916;51.996;5.180;2022-09-01T08:06:50;26.60;34.20
70456;DHT22;57916;51.996;5.180;2022-09-01T08:09:18;26.60;34.30
70456;DHT22;57916;51.996;5.180;2022-09-01T08:12:04;26.70;34.10
70456;DHT22;57916;51.996;5.180;2022-09-01T08:14:37;26.80;33.90
70456;DHT22;57916;51.996;5.180;2022-09-01T08:17:05;26.80;33.30
70456;DHT22;57916;51.996;5.180;2022-09-01T08:19:54;26.70;33.70
70456;DHT22;57916;51.996;5.180;2022-09-01T08:22:41;26.70;34.20
70456;DHT22;57916;51.996;5.180;2022-09-01T08:25:29;26.90;34.20
70456;DHT22;57916;51.996;5.180;2022-09-01T08:27:57;27.20;33.80
70456;DHT22;57916;51.996;5.180;2022-09-01T08:30:26;27.50;33.60
70456;DHT22;57916;51.996;5.180;2022-09-01T08:32:54;27.60;32.80
70456;DHT22;57916;51.996;5.180;2022-09-01T08:35:21;27.70;32.30
70456;DHT22;57916;51.996;5.180;2022-09-01T08:37:49;27.70;32.60
70456;DHT22;57916;51.996;5.180;2022-09-01T08:40:18;27.90;32.10
70456;DHT22;57916;51.996;5.180;2022-09-01T08:46:15;28.00;31.80
70456;DHT22;57916;51.996;5.180;2022-09-01T08:48:50;28.20;31.70
70456;DHT22;57916;51.996;5.180;2022-09-01T08:52:13;28.30;31.70
70456;DHT22;57916;51.996;5.180;2022-09-01T08:54:55;28.50;31.60
70456;DHT22;57916;51.996;5.180;2022-09-01T08:57:30;28.90;31.10
70456;DHT22;57916;51.996;5.180;2022-09-01T09:00:18;29.10;30.00
70456;DHT22;57916;51.996;5.180;2022-09-01T09:03:18;29.30;29.90
70456;DHT22;57916;51.996;5.180;2022-09-01T09:11:21;29.50;29.70
70456;DHT22;57916;51.996;5.180;2022-09-01T09:16:39;29.70;28.60
70456;DHT22;57916;51.996;5.180;2022-09-01T09:19:27;29.60;28.60
70456;DHT22;57916;51.996;5.180;2022-09-01T09:21:57;29.50;28.90
70456;DHT22;57916;51.996;5.180;2022-09-01T09:29:56;29.70;28.80
70456;DHT22;57916;51.996;5.180;2022-09-01T09:32:42;29.80;29.10
70456;DHT22;57916;51.996;5.180;2022-09-01T09:35:36;30.10;29.00
70456;DHT22;57916;51.996;5.180;2022-09-01T09:41:13;30.50;27.80
70456;DHT22;57916;51.996;5.180;2022-09-01T09:43:56;30.40;27.70
70456;DHT22;57916;51.996;5.180;2022-09-01T09:49:26;30.40;27.50
70456;DHT22;57916;51.996;5.180;2022-09-01T09:55:20;30.30;27.20
70456;DHT22;57916;51.996;5.180;2022-09-01T09:57:49;30.30;27.90
70456;DHT22;57916;51.996;5.180;2022-09-01T10:00:30;30.40;27.60
70456;DHT22;57916;51.996;5.180;2022-09-01T10:03:02;30.50;27.30
70456;DHT22;57916;51.996;5.180;2022-09-01T10:05:46;30.60;27.20
70456;DHT22;57916;51.996;5.180;2022-09-01T10:11:00;30.30;26.80
70456;DHT22;57916;51.996;5.180;2022-09-01T10:13:27;30.10;27.10
70456;DHT22;57916;51.996;5.180;2022-09-01T10:16:10;29.90;27.00
70456;DHT22;57916;51.996;5.180;2022-09-01T10:18:47;29.80;27.30
70456;DHT22;57916;51.996;5.180;2022-09-01T10:23:49;29.90;27.30
70456;DHT22;57916;51.996;5.180;2022-09-01T10:31:33;30.10;26.70
70456;DHT22;57916;51.996;5.180;2022-09-01T10:34:02;30.40;26.80
70456;DHT22;57916;51.996;5.180;2022-09-01T10:36:32;30.70;25.40
70456;DHT22;57916;51.996;5.180;2022-09-01T10:39:01;30.70;25.50
70456;DHT22;57916;51.996;5.180;2022-09-01T10:41:50;30.70;26.00
70456;DHT22;57916;51.996;5.180;2022-09-01T10:44:29;30.80;25.40
70456;DHT22;57916;51.996;5.180;2022-09-01T10:47:03;31.00;25.50
70456;DHT22;57916;51.996;5.180;2022-09-01T10:55:39;31.30;24.90
70456;DHT22;57916;51.996;5.180;2022-09-01T10:58:27;31.40;24.50
70456;DHT22;57916;51.996;5.180;2022-09-01T11:01:16;31.50;24.20
70456;DHT22;57916;51.996;5.180;2022-09-01T11:04:03;31.60;24.70
70456;DHT22;57916;51.996;5.180;2022-09-01T11:09:03;31.90;24.00
70456;DHT22;57916;51.996;5.180;2022-09-01T11:14:01;31.80;24.10
70456;DHT22;57916;51.996;5.180;2022-09-01T11:16:37;31.70;24.30
70456;DHT22;57916;51.996;5.180;2022-09-01T11:22:35;31.50;24.70
70456;DHT22;57916;51.996;5.180;2022-09-01T11:25:07;31.60;24.10
70456;DHT22;57916;51.996;5.180;2022-09-01T11:32:45;31.80;24.10
70456;DHT22;57916;51.996;5.180;2022-09-01T11:35:19;31.90;23.80
70456;DHT22;57916;51.996;5.180;2022-09-01T11:37:48;31.80;23.70
70456;DHT22;57916;51.996;5.180;2022-09-01T11:40:27;31.70;23.50
70456;DHT22;57916;51.996;5.180;2022-09-01T11:43:02;31.60;23.70
70456;DHT22;57916;51.996;5.180;2022-09-01T11:45:43;31.40;23.80
70456;DHT22;57916;51.996;5.180;2022-09-01T11:48:16;31.60;23.80
70456;DHT22;57916;51.996;5.180;2022-09-01T11:50:43;31.70;23.90
70456;DHT22;57916;51.996;5.180;2022-09-01T11:53:19;31.80;23.70
70456;DHT22;57916;51.996;5.180;2022-09-01T11:55:50;31.70;24.10
70456;DHT22;57916;51.996;5.180;2022-09-01T12:00:55;31.80;24.00
70456;DHT22;57916;51.996;5.180;2022-09-01T12:03:27;31.70;23.80
70456;DHT22;57916;51.996;5.180;2022-09-01T12:06:03;31.90;24.00
70456;DHT22;57916;51.996;5.180;2022-09-01T12:08:41;32.00;23.30
70456;DHT22;57916;51.996;5.180;2022-09-01T12:11:11;31.90;23.20
70456;DHT22;57916;51.996;5.180;2022-09-01T12:13:39;31.70;23.20
70456;DHT22;57916;51.996;5.180;2022-09-01T12:16:08;31.70;23.00
70456;DHT22;57916;51.996;5.180;2022-09-01T12:18:47;31.80;23.00
70456;DHT22;57916;51.996;5.180;2022-09-01T12:21:20;32.00;23.40
70456;DHT22;57916;51.996;5.180;2022-09-01T12:23:48;32.20;22.50
70456;DHT22;57916;51.996;5.180;2022-09-01T12:26:22;32.00;22.60
70456;DHT22;57916;51.996;5.180;2022-09-01T12:28:51;32.00;22.60
70456;DHT22;57916;51.996;5.180;2022-09-01T12:31:22;31.90;22.90
70456;DHT22;57916;51.996;5.180;2022-09-01T12:33:51;31.90;22.90
70456;DHT22;57916;51.996;5.180;2022-09-01T12:38:46;31.90;22.90
70456;DHT22;57916;51.996;5.180;2022-09-01T12:41:43;31.80;22.80
70456;DHT22;57916;51.996;5.180;2022-09-01T12:50:00;31.40;22.90
70456;DHT22;57916;51.996;5.180;2022-09-01T12:52:31;31.20;23.20
70456;DHT22;57916;51.996;5.180;2022-09-01T13:05:46;30.70;24.00
70456;DHT22;57916;51.996;5.180;2022-09-01T13:08:22;30.60;23.90
70456;DHT22;57916;51.996;5.180;2022-09-01T13:10:58;30.40;24.00
70456;DHT22;57916;51.996;5.180;2022-09-01T13:13:28;30.20;24.30
70456;DHT22;57916;51.996;5.180;2022-09-01T13:15:57;30.10;24.10
70456;DHT22;57916;51.996;5.180;2022-09-01T13:18:30;29.90;24.70
70456;DHT22;57916;51.996;5.180;2022-09-01T13:20:57;29.70;24.50
70456;DHT22;57916;51.996;5.180;2022-09-01T13:23:24;29.50;24.90
70456;DHT22;57916;51.996;5.180;2022-09-01T13:25:51;29.40;25.00
70456;DHT22;57916;51.996;5.180;2022-09-01T13:28:19;29.20;25.30
70456;DHT22;57916;51.996;5.180;2022-09-01T13:31:00;29.10;25.10
70456;DHT22;57916;51.996;5.180;2022-09-01T13:33:51;29.00;25.30
70456;DHT22;57916;51.996;5.180;2022-09-01T13:36:38;29.00;25.30
70456;DHT22;57916;51.996;5.180;2022-09-01T13:39:11;29.00;25.70
70456;DHT22;57916;51.996;5.180;2022-09-01T13:41:38;28.90;25.60
70456;DHT22;57916;51.996;5.180;2022-09-01T13:44:05;28.90;26.10
70456;DHT22;57916;51.996;5.180;2022-09-01T13:46:32;28.80;26.00
70456;DHT22;57916;51.996;5.180;2022-09-01T13:48:59;28.70;25.40
70456;DHT22;57916;51.996;5.180;2022-09-01T13:51:50;28.60;25.40
70456;DHT22;57916;51.996;5.180;2022-09-01T13:54:18;28.50;25.90
70456;DHT22;57916;51.996;5.180;2022-09-01T13:56:45;28.60;26.20
70456;DHT22;57916;51.996;5.180;2022-09-01T13:59:12;28.60;26.00
70456;DHT22;57916;51.996;5.180;2022-09-01T14:01:39;28.60;26.40
70456;DHT22;57916;51.996;5.180;2022-09-01T14:04:09;28.50;26.30
70456;DHT22;57916;51.996;5.180;2022-09-01T14:06:43;28.50;25.80
70456;DHT22;57916;51.996;5.180;2022-09-01T14:09:11;28.40;26.30
70456;DHT22;57916;51.996;5.180;2022-09-01T14:11:43;28.30;25.70
70456;DHT22;57916;51.996;5.180;2022-09-01T14:14:10;28.30;26.00
70456;DHT22;57916;51.996;5.180;2022-09-01T14:16:37;28.30;26.50
70456;DHT22;57916;51.996;5.180;2022-09-01T14:19:04;28.30;26.60
70456;DHT22;57916;51.996;5.180;2022-09-01T14:21:31;28.40;26.50
70456;DHT22;57916;51.996;5.180;2022-09-01T14:23:58;28.40;26.60
70456;DHT22;57916;51.996;5.180;2022-09-01T14:26:26;28.40;26.20
70456;DHT22;57916;51.996;5.180;2022-09-01T14:28:53;28.30;26.40
70456;DHT22;57916;51.996;5.180;2022-09-01T14:31:21;28.20;26.10
70456;DHT22;57916;51.996;5.180;2022-09-01T14:33:49;28.10;26.60
70456;DHT22;57916;51.996;5.180;2022-09-01T14:36:22;28.00;26.60
70456;DHT22;57916;51.996;5.180;2022-09-01T14:38:51;28.00;26.60
70456;DHT22;57916;51.996;5.180;2022-09-01T14:41:22;28.00;26.60
70456;DHT22;57916;51.996;5.180;2022-09-01T14:43:54;28.00;27.10
70456;DHT22;57916;51.996;5.180;2022-09-01T14:46:29;28.00;27.20
70456;DHT22;57916;51.996;5.180;2022-09-01T14:48:57;28.10;27.20
70456;DHT22;57916;51.996;5.180;2022-09-01T14:51:27;28.10;26.50
70456;DHT22;57916;51.996;5.180;2022-09-01T14:54:14;28.10;26.50
70456;DHT22;57916;51.996;5.180;2022-09-01T14:56:41;28.20;26.50
70456;DHT22;57916;51.996;5.180;2022-09-01T14:59:28;28.10;26.10
70456;DHT22;57916;51.996;5.180;2022-09-01T15:01:55;28.20;26.60
70456;DHT22;57916;51.996;5.180;2022-09-01T15:04:22;28.10;26.20
70456;DHT22;57916;51.996;5.180;2022-09-01T15:06:49;28.20;26.40
70456;DHT22;57916;51.996;5.180;2022-09-01T15:09:16;28.20;26.10
70456;DHT22;57916;51.996;5.180;2022-09-01T15:11:45;28.20;26.70
70456;DHT22;57916;51.996;5.180;2022-09-01T15:14:12;28.30;26.50
70456;DHT22;57916;51.996;5.180;2022-09-01T15:16:39;28.30;26.40
70456;DHT22;57916;51.996;5.180;2022-09-01T15:19:09;28.30;26.90
70456;DHT22;57916;51.996;5.180;2022-09-01T15:21:41;28.30;26.20
70456;DHT22;57916;51.996;5.180;2022-09-01T15:24:09;28.30;26.50
70456;DHT22;57916;51.996;5.180;2022-09-01T15:26:38;28.30;26.30
70456;DHT22;57916;51.996;5.180;2022-09-01T15:29:07;28.20;26.20
70456;DHT22;57916;51.996;5.180;2022-09-01T15:31:38;28.20;26.20
70456;DHT22;57916;51.996;5.180;2022-09-01T15:34:05;28.20;25.70
70456;DHT22;57916;51.996;5.180;2022-09-01T15:36:35;28.20;26.00
70456;DHT22;57916;51.996;5.180;2022-09-01T15:39:02;28.20;26.30
70456;DHT22;57916;51.996;5.180;2022-09-01T15:41:30;28.20;26.20
70456;DHT22;57916;51.996;5.180;2022-09-01T15:44:00;28.20;26.00
70456;DHT22;57916;51.996;5.180;2022-09-01T15:46:27;28.20;26.00
70456;DHT22;57916;51.996;5.180;2022-09-01T15:49:05;28.20;25.90
70456;DHT22;57916;51.996;5.180;2022-09-01T15:51:41;28.20;25.60
70456;DHT22;57916;51.996;5.180;2022-09-01T15:54:17;28.20;25.80
70456;DHT22;57916;51.996;5.180;2022-09-01T15:56:46;28.10;25.70
70456;DHT22;57916;51.996;5.180;2022-09-01T15:59:14;28.10;26.40
70456;DHT22;57916;51.996;5.180;2022-09-01T16:01:43;28.20;26.00
70456;DHT22;57916;51.996;5.180;2022-09-01T16:04:13;28.10;25.90
70456;DHT22;57916;51.996;5.180;2022-09-01T16:06:46;28.10;26.30
70456;DHT22;57916;51.996;5.180;2022-09-01T16:09:16;28.10;26.20
70456;DHT22;57916;51.996;5.180;2022-09-01T16:11:47;28.00;26.10
70456;DHT22;57916;51.996;5.180;2022-09-01T16:14:14;28.00;26.70
70456;DHT22;57916;51.996;5.180;2022-09-01T16:19:53;28.00;26.40
70456;DHT22;57916;51.996;5.180;2022-09-01T16:22:34;27.90;26.00
70456;DHT22;57916;51.996;5.180;2022-09-01T16:25:17;28.00;26.90
70456;DHT22;57916;51.996;5.180;2022-09-01T16:27:49;28.00;26.30
70456;DHT22;57916;51.996;5.180;2022-09-01T16:30:25;27.90;26.00
70456;DHT22;57916;51.996;5.180;2022-09-01T16:32:56;27.90;26.40
70456;DHT22;57916;51.996;5.180;2022-09-01T16:35:34;28.00;26.30
70456;DHT22;57916;51.996;5.180;2022-09-01T16:38:33;28.00;26.30
70456;DHT22;57916;51.996;5.180;2022-09-01T16:41:06;28.00;26.80
70456;DHT22;57916;51.996;5.180;2022-09-01T16:43:40;27.90;26.70
70456;DHT22;57916;51.996;5.180;2022-09-01T16:46:36;27.90;27.00
70456;DHT22;57916;51.996;5.180;2022-09-01T16:51:54;27.90;27.30
70456;DHT22;57916;51.996;5.180;2022-09-01T16:57:50;27.90;26.70
70456;DHT22;57916;51.996;5.180;2022-09-01T17:06:54;27.70;27.20
70456;DHT22;57916;51.996;5.180;2022-09-01T17:09:31;27.70;27.10
70456;DHT22;57916;51.996;5.180;2022-09-01T17:12:20;27.70;27.30
70456;DHT22;57916;51.996;5.180;2022-09-01T17:14:55;27.60;27.40
70456;DHT22;57916;51.996;5.180;2022-09-01T17:17:34;27.60;27.40
70456;DHT22;57916;51.996;5.180;2022-09-01T17:20:04;27.70;27.80
70456;DHT22;57916;51.996;5.180;2022-09-01T17:22:32;27.70;28.20
70456;DHT22;57916;51.996;5.180;2022-09-01T17:25:09;27.70;28.40
70456;DHT22;57916;51.996;5.180;2022-09-01T17:27:55;27.70;27.80
70456;DHT22;57916;51.996;5.180;2022-09-01T17:30:25;27.70;27.90
70456;DHT22;57916;51.996;5.180;2022-09-01T17:38:48;27.70;28.20
70456;DHT22;57916;51.996;5.180;2022-09-01T17:47:19;27.60;29.40
70456;DHT22;57916;51.996;5.180;2022-09-01T18:12:28;27.20;32.70
70456;DHT22;57916;51.996;5.180;2022-09-01T18:15:07;27.10;33.20
70456;DHT22;57916;51.996;5.180;2022-09-01T18:18:02;27.00;33.60